createdAt,value
2018-11-14T00:00:32.777Z,11.62
2018-11-14T00:03:03.136Z,11.72
2018-11-14T00:05:32.158Z,11.55
2018-11-14T00:08:01.187Z,11.68
2018-11-14T00:10:30.242Z,11.72
2018-11-14T00:12:59.265Z,11.59
2018-11-14T00:15:39.932Z,11.50
2018-11-14T00:18:08.944Z,11.67
2018-11-14T00:20:37.956Z,11.69
2018-11-14T00:23:07.414Z,11.69
2018-11-14T00:25:36.383Z,11.49
2018-11-14T00:28:05.511Z,11.51
2018-11-14T00:30:34.807Z,11.62
2018-11-14T00:33:03.873Z,11.62
2018-11-14T00:35:32.971Z,11.60
2018-11-14T00:38:01.960Z,11.71
2018-11-14T00:40:30.939Z,11.83
2018-11-14T00:42:59.935Z,11.84
2018-11-14T00:45:29.004Z,11.88
2018-11-14T00:47:58.021Z,11.86
2018-11-14T00:50:27.035Z,11.82
2018-11-14T00:52:56.066Z,11.70
2018-11-14T00:55:25.057Z,11.71
2018-11-14T00:57:54.035Z,11.68
2018-11-14T01:00:24.339Z,11.72
2018-11-14T01:02:53.498Z,11.71
2018-11-14T01:05:22.652Z,11.59
2018-11-14T01:07:52.004Z,11.62
2018-11-14T01:10:22.193Z,11.26
2018-11-14T01:12:51.754Z,11.73
2018-11-14T01:15:22.312Z,11.79
2018-11-14T01:17:51.320Z,11.95
2018-11-14T01:20:21.553Z,12.12
2018-11-14T01:22:50.736Z,12.02
2018-11-14T01:25:20.224Z,11.77
2018-11-14T01:27:49.611Z,11.75
2018-11-14T01:30:21.363Z,11.79
2018-11-14T01:32:51.118Z,11.62
2018-11-14T01:35:20.864Z,11.62
2018-11-14T01:37:50.622Z,11.63
2018-11-14T01:40:23.003Z,11.59
2018-11-14T01:42:54.550Z,11.58
2018-11-14T01:45:23.974Z,11.53
2018-11-14T01:47:53.314Z,11.44
2018-11-14T01:50:22.698Z,11.40
2018-11-14T01:52:52.093Z,11.31
2018-11-14T01:55:22.074Z,11.24
2018-11-14T01:57:51.490Z,11.09
2018-11-14T02:00:22.797Z,11.12
2018-11-14T02:02:51.817Z,11.31
2018-11-14T02:05:20.850Z,11.40
2018-11-14T02:07:49.907Z,11.45
2018-11-14T02:10:19.946Z,11.22
2018-11-14T02:12:49.191Z,11.24
2018-11-14T02:15:19.653Z,11.12
2018-11-14T02:17:48.640Z,11.12
2018-11-14T02:20:17.689Z,11.43
2018-11-14T02:22:47.096Z,11.55
2018-11-14T02:25:16.678Z,11.20
2018-11-14T02:27:45.749Z,11.15
2018-11-14T02:30:17.158Z,11.35
2018-11-14T02:32:46.201Z,11.53
2018-11-14T02:35:16.072Z,11.25
2018-11-14T02:37:45.662Z,11.02
2018-11-14T02:40:15.833Z,10.89
2018-11-14T02:42:44.836Z,10.87
2018-11-14T02:45:14.329Z,11.08
2018-11-14T02:47:43.423Z,11.20
2018-11-14T02:50:14.190Z,11.27
2018-11-14T02:52:43.268Z,11.05
2018-11-14T02:55:13.667Z,11.03
2018-11-14T02:57:43.059Z,11.11
2018-11-14T03:00:14.435Z,11.13
2018-11-14T03:02:44.171Z,11.05
2018-11-14T03:05:13.990Z,11.12
2018-11-14T03:07:43.083Z,11.06
2018-11-14T03:10:21.250Z,11.23
2018-11-14T03:12:50.378Z,11.20
2018-11-14T03:15:20.777Z,11.23
2018-11-14T03:17:49.828Z,11.22
2018-11-14T03:20:20.874Z,11.26
2018-11-14T03:22:49.876Z,11.20
2018-11-14T03:25:19.160Z,11.20
2018-11-14T03:27:48.248Z,11.25
2018-11-14T03:30:18.353Z,11.30
2018-11-14T03:32:47.422Z,11.37
2018-11-14T03:35:16.675Z,11.48
2018-11-14T03:37:45.675Z,11.49
2018-11-14T03:40:16.021Z,11.40
2018-11-14T03:42:45.273Z,11.30
2018-11-14T03:45:15.021Z,11.15
2018-11-14T03:47:44.166Z,11.21
2018-11-14T03:50:13.235Z,11.21
2018-11-14T03:52:42.240Z,11.13
2018-11-14T03:55:11.293Z,11.14
2018-11-14T03:57:40.468Z,11.08
2018-11-14T04:00:14.051Z,11.18
2018-11-14T04:02:44.009Z,11.25
2018-11-14T04:05:13.083Z,11.26
2018-11-14T04:07:42.362Z,11.25
2018-11-14T04:10:12.796Z,11.26
2018-11-14T04:12:42.166Z,11.29
2018-11-14T04:15:12.451Z,11.31
2018-11-14T04:17:41.556Z,11.27
2018-11-14T04:20:14.849Z,11.29
2018-11-14T04:22:44.621Z,11.34
2018-11-14T04:25:15.448Z,11.31
2018-11-14T04:27:45.345Z,11.29
2018-11-14T04:30:15.963Z,11.32
2018-11-14T04:32:45.158Z,11.23
2018-11-14T04:35:15.353Z,11.22
2018-11-14T04:37:44.428Z,11.30
2018-11-14T04:40:15.457Z,11.33
2018-11-14T04:42:44.510Z,11.35
2018-11-14T04:45:14.865Z,11.32
2018-11-14T04:47:43.997Z,11.31
2018-11-14T04:50:15.402Z,11.43
2018-11-14T04:52:45.358Z,11.41
2018-11-14T04:55:15.448Z,11.29
2018-11-14T04:57:44.957Z,11.34
2018-11-14T05:00:14.950Z,11.31
2018-11-14T05:02:44.812Z,11.36
2018-11-14T05:05:15.536Z,11.18
2018-11-14T05:07:44.614Z,11.31
2018-11-14T05:10:15.740Z,11.17
2018-11-14T05:12:45.273Z,11.20
2018-11-14T05:15:15.817Z,11.19
2018-11-14T05:17:45.469Z,11.16
2018-11-14T05:20:16.097Z,11.24
2018-11-14T05:22:45.591Z,11.05
2018-11-14T05:25:14.825Z,11.05
2018-11-14T05:27:43.901Z,11.11
2018-11-14T05:30:17.195Z,11.19
2018-11-14T05:32:47.655Z,11.14
2018-11-14T05:35:17.067Z,11.02
2018-11-14T05:37:46.439Z,10.98
2018-11-14T05:40:17.844Z,11.09
2018-11-14T05:42:47.398Z,11.06
2018-11-14T05:45:21.076Z,11.04
2018-11-14T05:47:50.117Z,10.93
2018-11-14T05:50:20.284Z,10.89
2018-11-14T05:52:49.357Z,10.83
2018-11-14T05:55:18.575Z,10.84
2018-11-14T05:57:47.913Z,10.85
2018-11-14T06:00:25.345Z,10.86
2018-11-14T06:02:55.287Z,10.86
2018-11-14T06:05:24.301Z,10.92
2018-11-14T06:07:54.399Z,11.12
2018-11-14T06:10:23.500Z,11.21
2018-11-14T06:12:52.505Z,11.35
2018-11-14T06:15:22.445Z,11.41
2018-11-14T06:17:54.733Z,11.45
2018-11-14T06:20:24.475Z,11.55
2018-11-14T06:22:54.859Z,11.58
2018-11-14T06:25:29.853Z,12.04
2018-11-14T06:28:00.538Z,11.73
2018-11-14T06:30:31.484Z,11.87
2018-11-14T06:33:01.854Z,11.95
2018-11-14T06:35:31.137Z,12.02
2018-11-14T06:38:01.601Z,12.08
2018-11-14T06:40:32.046Z,12.26
2018-11-14T06:48:35.575Z,12.98
2018-11-14T06:51:04.978Z,12.85
2018-11-14T06:53:34.702Z,13.22
2018-11-14T06:56:05.465Z,13.16
2018-11-14T06:58:36.332Z,13.44
2018-11-14T07:01:07.089Z,13.07
2018-11-14T07:03:36.734Z,13.15
2018-11-14T07:06:08.122Z,13.65
2018-11-14T07:08:39.226Z,13.97
2018-11-14T07:11:10.012Z,13.92
2018-11-14T07:13:41.162Z,13.79
2018-11-14T07:16:12.098Z,14.08
2018-11-14T07:18:41.671Z,13.94
2018-11-14T07:21:11.671Z,13.97
2018-11-14T07:23:42.430Z,13.90
2018-11-14T07:26:12.772Z,13.68
2018-11-14T07:28:42.962Z,13.73
2018-11-14T07:31:13.296Z,13.34
2018-11-14T07:33:43.633Z,12.89
2018-11-14T07:36:14.505Z,12.80
2018-11-14T07:38:46.073Z,12.32
2018-11-14T07:41:17.869Z,12.09
2018-11-14T07:43:48.587Z,12.05
2018-11-14T07:46:18.630Z,11.97
2018-11-14T07:48:49.697Z,12.15
2018-11-14T07:51:19.533Z,12.58
2018-11-14T07:53:49.798Z,12.50
2018-11-14T07:56:19.725Z,12.43
2018-11-14T07:58:49.183Z,12.74
2018-11-14T08:01:20.037Z,12.83
2018-11-14T08:03:49.885Z,12.47
2018-11-14T08:06:19.947Z,12.37
2018-11-14T08:08:49.796Z,12.44
2018-11-14T08:11:18.997Z,12.15
2018-11-14T08:13:49.347Z,12.55
2018-11-14T08:16:18.576Z,12.63
2018-11-14T08:18:48.277Z,12.89
2018-11-14T08:21:17.578Z,12.71
2018-11-14T08:23:47.370Z,12.60
2018-11-14T08:26:17.212Z,13.01
2018-11-14T08:28:46.736Z,13.00
2018-11-14T08:31:16.029Z,12.93
2018-11-14T08:33:45.316Z,13.65
2018-11-14T08:36:14.622Z,13.85
2018-11-14T08:38:44.073Z,13.57
2018-11-14T08:41:13.318Z,13.56
2018-11-14T08:43:42.839Z,14.01
2018-11-14T08:46:12.306Z,13.48
2018-11-14T08:48:42.142Z,13.37
2018-11-14T08:51:11.730Z,13.61
2018-11-14T08:53:41.682Z,13.50
2018-11-14T08:56:11.527Z,13.86
2018-11-14T08:58:41.041Z,13.90
2018-11-14T09:01:10.870Z,13.92
2018-11-14T09:03:40.335Z,13.59
2018-11-14T09:06:09.818Z,13.76
2018-11-14T09:08:39.111Z,14.01
2018-11-14T09:11:08.970Z,13.99
2018-11-14T09:13:38.406Z,14.29
2018-11-14T09:16:07.692Z,14.60
2018-11-14T09:18:37.324Z,14.86
2018-11-14T09:21:06.791Z,15.39
2018-11-14T09:23:35.967Z,14.76
2018-11-14T09:26:05.683Z,14.55
2018-11-14T09:28:35.208Z,14.82
2018-11-14T09:31:04.595Z,14.63
2018-11-14T09:33:33.857Z,15.11
2018-11-14T09:36:02.937Z,14.96
2018-11-14T09:38:31.894Z,15.07
2018-11-14T09:41:01.273Z,14.93
2018-11-14T09:43:30.987Z,14.93
2018-11-14T09:46:01.342Z,15.16
2018-11-14T09:48:31.862Z,15.13
2018-11-14T09:51:01.946Z,15.78
2018-11-14T09:53:31.578Z,15.11
2018-11-14T09:56:01.616Z,15.15
2018-11-14T09:58:31.276Z,15.37
2018-11-14T10:01:00.578Z,15.39
2018-11-14T10:03:31.698Z,14.72
2018-11-14T10:06:01.211Z,15.24
2018-11-14T10:08:30.873Z,15.52
2018-11-14T10:11:00.556Z,15.30
2018-11-14T10:13:30.003Z,15.13
2018-11-14T10:15:59.007Z,15.17
2018-11-14T10:18:28.267Z,14.99
2018-11-14T10:20:57.299Z,14.97
2018-11-14T10:23:26.420Z,15.23
2018-11-14T10:25:55.477Z,14.89
2018-11-14T10:28:24.729Z,14.92
2018-11-14T10:30:54.282Z,15.21
2018-11-14T10:33:24.874Z,14.81
2018-11-14T10:35:54.374Z,14.92
2018-11-14T10:38:23.847Z,14.69
2018-11-14T10:40:53.312Z,14.77
2018-11-14T10:43:23.001Z,14.67
2018-11-14T10:45:52.508Z,14.89
2018-11-14T10:48:22.001Z,15.10
2018-11-14T10:50:51.449Z,14.93
2018-11-14T10:53:20.801Z,14.94
2018-11-14T10:55:50.160Z,15.06
2018-11-14T10:58:19.211Z,15.47
2018-11-14T11:00:49.061Z,15.12
2018-11-14T11:03:23.249Z,15.47
2018-11-14T11:05:57.491Z,15.07
2018-11-14T11:08:31.954Z,15.16
2018-11-14T11:11:06.226Z,15.66
2018-11-14T11:13:40.915Z,15.23
2018-11-14T11:16:15.086Z,14.82
2018-11-14T11:18:44.296Z,14.46
2018-11-14T11:21:13.838Z,14.66
2018-11-14T11:23:43.223Z,14.58
2018-11-14T11:26:12.663Z,14.36
2018-11-14T11:28:44.267Z,14.39
2018-11-14T11:31:13.759Z,14.27
2018-11-14T11:33:43.733Z,14.72
2018-11-14T11:36:13.845Z,14.76
2018-11-14T11:38:43.242Z,15.45
2018-11-14T11:41:12.487Z,14.72
2018-11-14T11:43:41.995Z,15.39
2018-11-14T11:46:11.942Z,15.71
2018-11-14T11:48:41.547Z,14.86
2018-11-14T11:51:11.031Z,14.64
2018-11-14T11:53:41.047Z,14.56
2018-11-14T11:56:10.553Z,15.01
2018-11-14T11:58:40.488Z,15.30
2018-11-14T12:01:10.359Z,15.44
2018-11-14T12:03:39.628Z,15.91
2018-11-14T12:06:09.561Z,15.07
2018-11-14T12:08:38.869Z,16.04
2018-11-14T12:11:08.209Z,15.69
2018-11-14T12:13:37.596Z,16.12
2018-11-14T12:16:06.798Z,15.97
2018-11-14T12:18:36.084Z,15.01
2018-11-14T12:21:05.393Z,15.76
2018-11-14T12:23:35.029Z,15.97
2018-11-14T12:26:04.301Z,15.61
2018-11-14T12:28:33.250Z,15.20
2018-11-14T12:31:02.434Z,15.19
2018-11-14T12:33:31.284Z,15.03
2018-11-14T12:36:00.241Z,14.79
2018-11-14T12:38:29.229Z,14.93
2018-11-14T12:40:58.328Z,15.10
2018-11-14T12:43:27.481Z,14.94
2018-11-14T12:45:56.484Z,15.06
2018-11-14T12:48:25.552Z,14.70
2018-11-14T12:50:56.634Z,14.61
2018-11-14T12:53:28.366Z,14.94
2018-11-14T12:56:00.520Z,14.95
2018-11-14T12:58:33.844Z,14.92
2018-11-14T13:01:06.369Z,14.92
2018-11-14T13:03:36.962Z,14.70
2018-11-14T13:06:07.354Z,14.57
2018-11-14T13:08:38.661Z,14.68
2018-11-14T13:11:10.955Z,14.84
2018-11-14T13:13:50.682Z,14.88
2018-11-14T13:16:23.406Z,14.48
2018-11-14T13:18:55.597Z,14.76
2018-11-14T13:21:28.847Z,14.82
2018-11-14T13:23:58.774Z,14.87
2018-11-14T13:26:30.841Z,15.13
2018-11-14T13:29:03.390Z,14.94
2018-11-14T13:31:34.258Z,14.87
2018-11-14T13:34:04.969Z,14.86
2018-11-14T13:36:35.313Z,14.79
2018-11-14T13:39:11.074Z,14.77
2018-11-14T13:41:41.769Z,14.59
2018-11-14T13:44:12.358Z,14.57
2018-11-14T13:46:42.806Z,14.48
2018-11-14T13:49:14.178Z,14.61
2018-11-14T13:51:43.874Z,14.65
2018-11-14T13:54:16.477Z,14.87
2018-11-14T13:56:47.443Z,15.04
2018-11-14T13:59:18.421Z,15.14
2018-11-14T14:01:48.894Z,15.04
2018-11-14T14:04:20.096Z,15.05
2018-11-14T14:06:50.004Z,15.02
2018-11-14T14:09:21.141Z,14.97
2018-11-14T14:11:51.374Z,15.14
2018-11-14T14:14:22.831Z,15.26
2018-11-14T14:16:53.524Z,15.28
2018-11-14T14:19:24.943Z,15.37
2018-11-14T14:21:55.979Z,15.36
2018-11-14T14:24:27.035Z,15.26
2018-11-14T14:26:56.846Z,15.20
2018-11-14T14:29:28.193Z,15.27
2018-11-14T14:31:57.400Z,15.32
2018-11-14T14:34:30.506Z,15.30
2018-11-14T14:39:40.078Z,15.04
2018-11-14T14:42:09.278Z,14.90
2018-11-14T14:44:38.457Z,14.84
2018-11-14T14:47:07.874Z,14.66
2018-11-14T14:49:37.076Z,14.64
2018-11-14T14:52:06.695Z,14.55
2018-11-14T14:54:35.950Z,14.48
2018-11-14T14:57:05.776Z,14.46
2018-11-14T14:59:34.979Z,14.30
2018-11-14T15:02:05.507Z,14.30
2018-11-14T15:04:34.798Z,14.30
2018-11-14T15:07:04.201Z,14.40
2018-11-14T15:09:33.458Z,14.56
2018-11-14T15:12:03.022Z,14.49
2018-11-14T15:14:32.209Z,14.50
2018-11-14T15:17:01.434Z,14.69
2018-11-14T15:19:30.813Z,14.63
2018-11-14T15:22:00.050Z,14.70
2018-11-14T15:24:29.250Z,14.56
2018-11-14T15:26:58.665Z,14.54
2018-11-14T15:29:27.878Z,14.56
2018-11-14T15:31:57.143Z,14.55
2018-11-14T15:34:26.301Z,14.57
2018-11-14T15:36:55.551Z,14.68
2018-11-14T15:39:24.762Z,14.59
2018-11-14T15:41:53.994Z,14.63
2018-11-14T15:44:23.167Z,14.65
2018-11-14T15:46:52.423Z,14.54
2018-11-14T15:49:21.930Z,14.59
2018-11-14T15:51:52.257Z,14.66
2018-11-14T15:54:21.918Z,14.63
2018-11-14T15:56:51.097Z,14.61
2018-11-14T15:59:20.427Z,14.61
2018-11-14T16:01:50.128Z,14.56
2018-11-14T16:04:19.410Z,14.41
2018-11-14T16:06:49.555Z,14.44
2018-11-14T16:09:19.922Z,14.40
2018-11-14T16:11:49.146Z,14.31
2018-11-14T16:14:18.422Z,14.26
2018-11-14T16:16:48.267Z,14.24
2018-11-14T16:19:17.756Z,14.26
2018-11-14T16:21:46.985Z,14.34
2018-11-14T16:24:17.305Z,14.45
2018-11-14T16:26:46.530Z,14.47
2018-11-14T16:29:19.402Z,14.48
2018-11-14T16:31:48.714Z,14.51
2018-11-14T16:34:17.823Z,14.31
2018-11-14T16:36:50.357Z,14.30
2018-11-14T16:39:19.504Z,14.21
2018-11-14T16:41:49.334Z,14.05
2018-11-14T16:44:18.592Z,13.97
2018-11-14T16:46:47.855Z,13.92
2018-11-14T16:49:17.133Z,14.17
2018-11-14T16:51:46.655Z,14.39
2018-11-14T16:54:15.899Z,14.51
2018-11-14T16:56:45.571Z,14.83
2018-11-14T16:59:14.716Z,14.25
2018-11-14T17:01:44.865Z,14.22
2018-11-14T17:04:15.737Z,14.05
2018-11-14T17:06:45.059Z,13.86
2018-11-14T17:09:14.810Z,14.05
2018-11-14T17:11:43.993Z,14.02
2018-11-14T17:14:13.204Z,14.20
2018-11-14T17:16:42.357Z,14.23
2018-11-14T17:19:11.549Z,14.29
2018-11-14T17:21:41.662Z,14.35
2018-11-14T17:24:10.755Z,13.92
2018-11-14T17:26:39.814Z,13.75
2018-11-14T17:29:09.024Z,13.74
2018-11-14T17:31:38.120Z,13.95
2018-11-14T17:34:07.263Z,13.89
2018-11-14T17:36:38.150Z,13.89
2018-11-14T17:39:10.754Z,13.98
2018-11-14T17:41:40.058Z,14.01
2018-11-14T17:44:09.173Z,14.00
2018-11-14T17:46:38.277Z,14.02
2018-11-14T17:49:09.170Z,14.05
2018-11-14T17:51:38.743Z,14.15
2018-11-14T17:54:08.715Z,14.22
2018-11-14T17:56:37.814Z,14.28
2018-11-14T17:59:06.884Z,14.34
2018-11-14T18:01:36.023Z,14.46
2018-11-14T18:04:05.219Z,14.46
2018-11-14T18:06:36.462Z,14.62
2018-11-14T18:09:12.365Z,14.63
2018-11-14T18:11:41.576Z,14.69
2018-11-14T18:14:10.778Z,14.70
2018-11-14T18:16:40.206Z,14.74
2018-11-14T18:19:09.357Z,14.61
2018-11-14T18:21:38.443Z,14.70
2018-11-14T18:24:07.568Z,14.69
2018-11-14T18:26:39.241Z,14.73
2018-11-14T18:29:08.404Z,14.79
2018-11-14T18:31:37.509Z,14.85
2018-11-14T18:34:06.597Z,14.90
2018-11-14T18:36:35.805Z,14.84
2018-11-14T18:39:08.052Z,14.84
2018-11-14T18:41:37.192Z,14.67
2018-11-14T18:44:07.269Z,14.76
2018-11-14T18:46:36.357Z,14.75
2018-11-14T18:49:05.795Z,14.63
2018-11-14T18:51:34.881Z,14.54
2018-11-14T18:54:04.083Z,14.46
2018-11-14T18:56:33.261Z,14.44
2018-11-14T18:59:02.282Z,14.44
2018-11-14T19:01:31.315Z,14.44
2018-11-14T19:04:02.295Z,14.39
2018-11-14T19:06:31.351Z,14.41
2018-11-14T19:09:00.447Z,14.41
2018-11-14T19:11:30.293Z,14.56
2018-11-14T19:14:00.704Z,14.50
2018-11-14T19:16:33.658Z,14.57
2018-11-14T19:19:03.324Z,14.45
2018-11-14T19:21:33.337Z,14.62
2018-11-14T19:24:03.127Z,14.69
2018-11-14T19:26:33.629Z,14.66
2018-11-14T19:29:06.247Z,14.45
2018-11-14T19:31:36.273Z,14.50
2018-11-14T19:34:10.272Z,14.48
2018-11-14T19:36:42.535Z,14.59
2018-11-14T19:39:13.881Z,14.70
2018-11-14T19:41:49.437Z,14.62
2018-11-14T19:44:18.927Z,14.78
2018-11-14T19:46:51.425Z,14.39
2018-11-14T19:49:23.549Z,14.22
2018-11-14T19:51:53.842Z,14.00
2018-11-14T19:54:23.637Z,13.93
2018-11-14T19:56:53.119Z,14.42
2018-11-14T19:59:22.490Z,13.65
2018-11-14T20:01:51.764Z,13.61
2018-11-14T20:04:21.216Z,13.36
2018-11-14T20:06:50.496Z,13.45
2018-11-14T20:09:19.763Z,13.54
2018-11-14T20:11:49.051Z,13.34
2018-11-14T20:14:18.220Z,13.30
2018-11-14T20:16:47.550Z,13.15
2018-11-14T20:19:16.764Z,13.23
2018-11-14T20:21:46.082Z,12.98
2018-11-14T20:24:15.129Z,13.17
2018-11-14T20:26:44.399Z,13.43
2018-11-14T20:29:13.522Z,13.11
2018-11-14T20:31:42.669Z,13.22
2018-11-14T20:34:11.768Z,13.28
2018-11-14T20:36:40.806Z,13.20
2018-11-14T20:39:12.149Z,13.31
2018-11-14T20:41:41.341Z,13.08
2018-11-14T20:44:10.462Z,13.07
2018-11-14T20:46:40.014Z,13.15
2018-11-14T20:49:09.766Z,13.17
2018-11-14T20:51:38.827Z,13.37
2018-11-14T20:54:08.037Z,13.12
2018-11-14T20:56:37.261Z,12.99
2018-11-14T20:59:06.341Z,13.09
2018-11-14T21:01:35.414Z,12.97
2018-11-14T21:04:04.643Z,13.36
2018-11-14T21:06:34.341Z,13.12
2018-11-14T21:09:03.949Z,13.44
2018-11-14T21:11:33.804Z,13.21
2018-11-14T21:14:03.154Z,13.41
2018-11-14T21:16:32.629Z,13.58
2018-11-14T21:19:01.770Z,13.81
2018-11-14T21:21:30.950Z,13.56
2018-11-14T21:24:00.068Z,13.64
2018-11-14T21:26:29.234Z,13.57
2018-11-14T21:28:58.483Z,13.51
2018-11-14T21:31:27.531Z,13.28
2018-11-14T21:33:56.594Z,13.04
2018-11-14T21:36:25.623Z,13.01
2018-11-14T21:38:54.756Z,13.16
2018-11-14T21:41:23.891Z,13.10
2018-11-14T21:43:52.953Z,13.17
2018-11-14T21:46:22.015Z,13.30
2018-11-14T21:48:51.067Z,13.37
2018-11-14T21:51:20.325Z,13.49
2018-11-14T21:53:49.436Z,13.15
2018-11-14T21:56:18.597Z,13.11
2018-11-14T21:58:47.677Z,13.34
2018-11-14T22:01:16.771Z,13.39
2018-11-14T22:03:45.916Z,13.34
2018-11-14T22:06:15.020Z,13.60
2018-11-14T22:08:44.273Z,13.28
2018-11-14T22:11:13.477Z,13.03
2018-11-14T22:13:42.659Z,13.02
2018-11-14T22:16:12.091Z,13.01
2018-11-14T22:18:41.555Z,13.21
2018-11-14T22:21:10.862Z,13.04
2018-11-14T22:23:39.901Z,12.95
2018-11-14T22:26:09.055Z,12.96
2018-11-14T22:28:38.335Z,13.02
2018-11-14T22:31:07.479Z,12.89
2018-11-14T22:33:36.839Z,13.18
2018-11-14T22:36:05.958Z,13.21
2018-11-14T22:38:35.065Z,13.14
2018-11-14T22:41:04.397Z,13.63
2018-11-14T22:43:33.755Z,13.42
2018-11-14T22:46:02.893Z,13.34
2018-11-14T22:48:32.049Z,12.98
2018-11-14T22:51:01.190Z,13.19
2018-11-14T22:53:30.449Z,13.20
2018-11-14T22:55:59.453Z,13.58
2018-11-14T22:58:28.680Z,13.38
2018-11-14T23:00:57.768Z,13.16
2018-11-14T23:03:26.897Z,13.29
2018-11-14T23:05:56.085Z,13.20
2018-11-14T23:08:25.316Z,13.19
2018-11-14T23:10:54.587Z,13.07
2018-11-14T23:13:23.714Z,13.03
2018-11-14T23:15:52.743Z,12.93
2018-11-14T23:18:21.949Z,13.05
2018-11-14T23:20:50.948Z,12.89
2018-11-14T23:23:20.361Z,12.69
2018-11-14T23:25:49.430Z,12.67
2018-11-14T23:28:18.550Z,12.66
2018-11-14T23:30:47.656Z,12.72
2018-11-14T23:33:16.762Z,12.91
2018-11-14T23:35:45.846Z,12.79
2018-11-14T23:38:14.972Z,12.98
2018-11-14T23:40:44.068Z,12.71
2018-11-14T23:43:13.068Z,12.73
2018-11-14T23:45:42.168Z,12.75
2018-11-14T23:48:11.363Z,13.14
2018-11-14T23:50:40.479Z,13.15
2018-11-14T23:53:09.571Z,12.96
2018-11-14T23:55:38.773Z,13.03
2018-11-14T23:58:07.909Z,13.12
